Time;durP1;ratioP1;P1;durP2;ratioP2;P2;SDS_P1;SDS_P2;PMS_P1;PMS_P2;Temp;Humidity;BMP_temperature;BMP_pressure;BME280_temperature;BME280_humidity;BME280_pressure;Samples;Min_cycle;Max_cycle;Signal;HPM_P1;HPM_P2
2021/12/28 00:01:26;;;;;;;36.63;24.10;;;5.50;99.90;;;;;;4954198;28;273651;-69
2021/12/28 00:03:53;;;;;;;36.90;23.60;;;5.60;99.90;;;;;;4979899;28;20130;-70
2021/12/28 00:06:20;;;;;;;37.78;23.92;;;5.60;99.90;;;;;;4926500;28;265538;-69
2021/12/28 00:08:48;;;;;;;36.63;22.63;;;5.60;99.90;;;;;;4962917;28;20051;-70
2021/12/28 00:11:14;;;;;;;36.78;24.00;;;5.60;99.90;;;;;;4939019;28;257696;-69
2021/12/28 00:13:41;;;;;;;42.45;24.70;;;5.60;99.90;;;;;;4960395;28;20097;-69
2021/12/28 00:18:35;;;;;;;41.40;26.73;;;5.60;99.90;;;;;;4960402;28;20063;-69
2021/12/28 00:21:03;;;;;;;43.08;26.17;;;5.70;99.90;;;;;;4944238;28;256211;-69
2021/12/28 00:23:37;;;;;;;42.95;26.13;;;5.70;99.90;;;;;;4961452;28;20154;-69
2021/12/28 00:26:06;;;;;;;39.05;25.23;;;5.70;99.90;;;;;;4964918;28;207983;-69
2021/12/28 00:28:32;;;;;;;43.13;26.10;;;5.70;99.90;;;;;;4957346;28;20058;-69
2021/12/28 00:30:58;;;;;;;45.58;27.27;;;5.70;99.90;;;;;;4945975;28;182183;-69
2021/12/28 00:33:26;;;;;;;41.95;26.25;;;5.70;99.90;;;;;;4964255;28;20059;-69
2021/12/28 00:35:53;;;;;;;45.17;26.95;;;5.70;99.90;;;;;;4952195;28;275272;-70
2021/12/28 00:38:23;;;;;;;45.30;28.17;;;5.70;99.90;;;;;;4962146;28;20058;-70
2021/12/28 00:40:55;;;;;;;50.10;28.85;;;5.70;99.90;;;;;;4939415;28;41641;-69
2021/12/28 00:43:21;;;;;;;50.03;27.95;;;5.80;99.90;;;;;;4962183;28;20157;-69
2021/12/28 00:45:48;;;;;;;43.40;28.13;;;5.80;99.90;;;;;;4954633;28;251076;-69
2021/12/28 00:48:15;;;;;;;52.00;29.23;;;5.70;99.90;;;;;;4967422;28;20053;-69
2021/12/28 00:50:41;;;;;;;54.42;30.73;;;5.80;99.90;;;;;;4950720;28;257343;-68
2021/12/28 00:53:08;;;;;;;60.97;31.52;;;5.70;99.90;;;;;;4965207;28;20055;-69
2021/12/28 00:55:34;;;;;;;52.42;29.55;;;5.80;99.90;;;;;;4949859;28;254384;-69
2021/12/28 00:58:00;;;;;;;54.50;30.73;;;5.80;99.90;;;;;;4969317;28;20543;-69
2021/12/28 01:00:29;;;;;;;60.70;32.20;;;5.80;99.90;;;;;;4949081;28;262567;-69
2021/12/28 01:02:59;;;;;;;56.50;31.73;;;5.80;99.90;;;;;;4959117;28;20046;-69
2021/12/28 01:05:28;;;;;;;60.25;33.75;;;5.80;99.90;;;;;;4945873;28;165291;-70
2021/12/28 01:07:55;;;;;;;57.63;31.73;;;5.80;99.90;;;;;;4960504;28;20062;-69
2021/12/28 01:10:27;;;;;;;60.60;32.80;;;5.80;99.90;;;;;;4953690;28;264277;-69
2021/12/28 01:12:55;;;;;;;;;;;5.80;99.90;;;;;;4964549;28;20070;-71
2021/12/28 01:15:23;;;;;;;69.30;33.30;;;5.80;99.90;;;;;;4951145;28;152482;-70
2021/12/28 01:17:49;;;;;;;64.20;33.50;;;5.80;99.90;;;;;;4958840;28;20071;-69
2021/12/28 01:20:15;;;;;;;65.45;32.03;;;5.80;99.90;;;;;;4947652;28;278060;-70
2021/12/28 01:22:44;;;;;;;72.85;34.13;;;5.80;99.90;;;;;;4963632;28;20070;-68
2021/12/28 01:25:13;;;;;;;70.63;33.08;;;5.80;99.90;;;;;;4947636;28;234917;-70
2021/12/28 01:27:39;;;;;;;62.03;32.28;;;5.80;99.90;;;;;;4971903;28;20046;-69
2021/12/28 01:30:08;;;;;;;70.05;33.97;;;5.90;99.90;;;;;;4966373;28;207974;-70
2021/12/28 01:32:35;;;;;;;75.28;34.50;;;5.80;99.90;;;;;;4961422;28;20050;-71
2021/12/28 01:35:03;;;;;;;72.97;33.92;;;5.80;99.90;;;;;;4952525;28;256413;-71
2021/12/28 01:37:29;;;;;;;80.13;33.28;;;5.90;99.90;;;;;;4974994;28;20057;-70
2021/12/28 01:39:55;;;;;;;88.38;37.53;;;5.80;99.90;;;;;;4951201;28;275119;-70
2021/12/28 01:42:21;;;;;;;88.75;37.05;;;5.80;99.90;;;;;;4965164;28;20534;-69
2021/12/28 01:44:47;;;;;;;98.43;37.85;;;5.90;99.90;;;;;;4954423;28;257467;-69
2021/12/28 01:47:16;;;;;;;98.65;38.00;;;5.90;99.90;;;;;;4993905;28;20412;-69
2021/12/28 01:49:42;;;;;;;82.90;35.90;;;6.00;99.90;;;;;;4966777;28;283126;-69
2021/12/28 01:52:09;;;;;;;109.10;38.30;;;6.00;99.90;;;;;;4995171;28;20046;-70
2021/12/28 01:54:35;;;;;;;103.35;38.88;;;6.00;99.90;;;;;;4969962;28;263525;-69
2021/12/28 01:57:01;;;;;;;152.05;41.75;;;6.00;99.90;;;;;;4998717;28;20060;-69
2021/12/28 01:59:28;;;;;;;132.35;40.03;;;6.00;99.90;;;;;;4965050;28;276246;-69
2021/12/28 02:01:56;;;;;;;118.97;40.45;;;6.00;99.90;;;;;;4997995;28;20058;-69
2021/12/28 02:04:28;;;;;;;145.67;42.23;;;6.00;99.90;;;;;;4952936;28;275091;-68
2021/12/28 02:06:57;;;;;;;110.55;39.35;;;6.00;99.90;;;;;;4978842;28;20109;-69
2021/12/28 02:09:24;;;;;;;136.70;42.10;;;6.00;99.90;;;;;;4948506;28;265942;-69
2021/12/28 02:11:52;;;;;;;166.50;43.88;;;6.10;99.90;;;;;;4964207;28;20066;-69
2021/12/28 02:14:18;;;;;;;126.05;41.92;;;6.00;99.90;;;;;;4950268;28;259906;-69
2021/12/28 02:16:44;;;;;;;171.77;43.03;;;6.10;99.90;;;;;;4993071;28;20055;-70
2021/12/28 02:19:12;;;;;;;158.10;42.83;;;6.10;99.90;;;;;;4984937;28;20046;-69
2021/12/28 02:21:39;;;;;;;167.02;45.25;;;6.10;99.90;;;;;;4962246;28;272072;-69
2021/12/28 02:24:07;;;;;;;161.20;43.13;;;6.20;99.90;;;;;;4986720;28;20422;-69
2021/12/28 02:26:34;;;;;;;164.70;45.08;;;6.20;99.90;;;;;;4968704;28;182330;-69
2021/12/28 02:29:00;;;;;;;151.23;41.00;;;6.20;99.90;;;;;;4986502;28;20046;-69
2021/12/28 02:31:27;;;;;;;149.48;39.92;;;6.20;99.90;;;;;;4975530;28;278061;-68
2021/12/28 02:33:54;;;;;;;177.40;40.95;;;6.20;99.90;;;;;;4979605;28;20050;-69
2021/12/28 02:36:20;;;;;;;124.78;39.60;;;6.20;99.90;;;;;;4976224;28;92370;-69
2021/12/28 02:38:47;;;;;;;176.93;42.55;;;6.20;99.90;;;;;;4984060;28;20062;-69
2021/12/28 02:41:13;;;;;;;150.23;41.90;;;6.20;99.90;;;;;;4974833;28;230499;-70
2021/12/28 02:43:41;;;;;;;245.60;45.83;;;6.20;99.90;;;;;;4983143;28;20051;-69
2021/12/28 02:46:09;;;;;;;197.23;43.88;;;6.20;99.90;;;;;;4968757;28;235956;-69
2021/12/28 02:48:37;;;;;;;183.25;42.47;;;6.10;99.90;;;;;;4980224;28;20495;-68
2021/12/28 02:51:13;;;;;;;206.93;43.83;;;6.20;99.90;;;;;;4978362;28;275676;-69
2021/12/28 02:53:40;;;;;;;172.98;44.75;;;6.20;99.90;;;;;;4982885;28;20054;-69
2021/12/28 02:56:07;;;;;;;172.52;45.67;;;6.20;99.90;;;;;;4961421;28;132408;-69
2021/12/28 02:58:34;;;;;;;182.20;44.22;;;6.20;99.90;;;;;;4983615;28;20435;-70
2021/12/28 03:01:08;;;;;;;201.32;44.42;;;6.30;99.90;;;;;;4980551;28;256074;-70
2021/12/28 03:03:36;;;;;;;229.40;47.60;;;6.30;99.90;;;;;;4977900;28;20050;-70
2021/12/28 03:06:07;;;;;;;155.75;42.33;;;6.30;99.90;;;;;;4960820;28;258997;-68
2021/12/28 03:08:35;;;;;;;201.55;44.95;;;6.30;99.90;;;;;;4972005;28;20047;-68
2021/12/28 03:11:03;;;;;;;142.32;42.92;;;6.30;99.90;;;;;;4973274;28;260807;-70
2021/12/28 03:13:36;;;;;;;160.73;41.30;;;6.30;99.90;;;;;;4972522;28;20053;-69
2021/12/28 03:16:03;;;;;;;188.30;43.88;;;6.30;99.90;;;;;;4972181;28;272609;-70
2021/12/28 03:18:29;;;;;;;153.70;42.17;;;6.30;99.90;;;;;;4986620;28;20054;-70
2021/12/28 03:20:57;;;;;;;192.73;43.80;;;6.30;99.90;;;;;;4977023;28;276020;-68
2021/12/28 03:23:24;;;;;;;177.52;44.90;;;6.30;99.90;;;;;;4978501;28;20057;-70
2021/12/28 03:25:51;;;;;;;159.02;45.17;;;6.40;99.90;;;;;;4967662;28;269384;-68
2021/12/28 03:28:20;;;;;;;176.05;43.47;;;6.40;99.90;;;;;;4975957;28;20054;-69
2021/12/28 03:30:47;;;;;;;175.40;46.55;;;6.40;99.90;;;;;;4954534;28;275090;-70
2021/12/28 03:33:14;;;;;;;155.73;44.40;;;6.50;99.90;;;;;;4965293;28;20043;-69
2021/12/28 03:35:40;;;;;;;173.27;44.63;;;6.50;99.90;;;;;;4944858;28;251825;-69
2021/12/28 03:38:06;;;;;;;177.38;46.88;;;6.50;99.90;;;;;;4965245;28;20050;-69
2021/12/28 03:40:33;;;;;;;163.23;46.05;;;6.50;99.90;;;;;;4944085;28;258190;-70
2021/12/28 03:42:59;;;;;;;168.93;45.47;;;6.60;99.90;;;;;;4956394;28;20055;-71
2021/12/28 03:45:25;;;;;;;168.77;45.55;;;6.60;99.90;;;;;;4951407;28;264566;-69
2021/12/28 03:47:52;;;;;;;149.90;44.03;;;6.60;99.90;;;;;;4959847;28;20278;-70
2021/12/28 03:50:19;;;;;;;162.48;43.38;;;6.60;99.90;;;;;;4947439;28;260851;-69
2021/12/28 03:52:46;;;;;;;186.68;45.50;;;6.60;99.90;;;;;;4954899;28;20055;-68
2021/12/28 03:55:13;;;;;;;205.45;46.00;;;6.70;99.90;;;;;;4949791;28;252008;-69
2021/12/28 03:57:39;;;;;;;170.88;43.75;;;6.70;99.90;;;;;;4958444;28;20049;-69
2021/12/28 04:00:08;;;;;;;159.40;43.78;;;6.70;99.90;;;;;;4946189;28;276101;-70
2021/12/28 04:02:34;;;;;;;154.77;41.42;;;6.70;99.90;;;;;;4950904;28;20493;-70
2021/12/28 04:05:01;;;;;;;176.68;42.70;;;6.70;99.90;;;;;;4933916;28;269529;-68
2021/12/28 04:07:27;;;;;;;149.48;40.70;;;6.70;99.90;;;;;;4952332;28;20058;-69
2021/12/28 04:12:21;;;;;;;134.15;40.58;;;6.70;99.90;;;;;;4971687;28;20058;-68
2021/12/28 04:14:48;;;;;;;153.18;41.42;;;6.70;99.90;;;;;;4949472;28;261726;-69
2021/12/28 04:17:14;;;;;;;147.20;40.70;;;6.70;99.90;;;;;;4974278;28;20051;-69
2021/12/28 04:19:40;;;;;;;150.93;42.60;;;6.70;99.90;;;;;;4946080;28;260849;-70
2021/12/28 04:22:07;;;;;;;125.38;39.67;;;6.70;99.90;;;;;;4967852;28;20065;-69
2021/12/28 04:24:33;;;;;;;151.25;39.95;;;6.70;99.90;;;;;;4944806;28;258784;-69
2021/12/28 04:27:00;;;;;;;120.18;39.75;;;6.70;99.90;;;;;;4962835;28;20051;-69
2021/12/28 04:29:26;;;;;;;164.90;41.50;;;6.70;99.90;;;;;;4952631;28;257726;-69
2021/12/28 04:31:52;;;;;;;146.65;40.85;;;6.70;99.90;;;;;;4952605;28;20062;-69
2021/12/28 04:34:19;;;;;;;146.05;40.47;;;6.70;99.90;;;;;;4950891;28;274558;-69
2021/12/28 04:36:47;;;;;;;124.43;39.25;;;6.60;99.90;;;;;;4966976;28;20054;-69
2021/12/28 04:39:13;;;;;;;144.23;41.20;;;6.60;99.90;;;;;;4966068;28;20074;-68
2021/12/28 04:41:40;;;;;;;143.32;41.20;;;6.70;99.90;;;;;;4967356;28;275848;-68
2021/12/28 04:44:09;;;;;;;121.03;40.53;;;6.60;99.90;;;;;;4989726;28;20077;-69
2021/12/28 04:46:35;;;;;;;131.32;40.50;;;6.60;99.90;;;;;;4961919;28;251872;-69
2021/12/28 04:49:01;;;;;;;127.20;40.08;;;6.70;99.90;;;;;;4968843;28;20359;-69
2021/12/28 04:51:27;;;;;;;117.43;39.22;;;6.70;99.90;;;;;;4976776;28;271096;-70
2021/12/28 04:53:55;;;;;;;115.38;38.05;;;6.70;99.90;;;;;;4986916;28;20049;-68
2021/12/28 04:56:22;;;;;;;111.00;36.13;;;6.70;99.90;;;;;;4974313;28;274018;-69
2021/12/28 04:58:49;;;;;;;108.60;38.30;;;6.70;99.90;;;;;;4973796;28;20058;-68
2021/12/28 05:01:15;;;;;;;105.90;36.90;;;6.70;99.90;;;;;;4963762;28;266239;-68
2021/12/28 05:03:41;;;;;;;105.63;36.22;;;6.70;99.90;;;;;;4967469;28;20526;-68
2021/12/28 05:06:07;;;;;;;102.60;36.00;;;6.70;99.90;;;;;;4956902;28;271310;-69
2021/12/28 05:08:34;;;;;;;98.10;36.33;;;6.70;99.90;;;;;;4983806;28;20066;-68
2021/12/28 05:11:00;;;;;;;95.85;35.90;;;6.60;99.90;;;;;;4972617;28;226128;-68
2021/12/28 05:13:26;;;;;;;94.82;34.22;;;6.60;99.90;;;;;;4981304;28;20178;-68
2021/12/28 05:15:53;;;;;;;92.53;33.65;;;6.60;99.90;;;;;;4970959;28;56524;-71
2021/12/28 05:18:20;;;;;;;93.97;33.70;;;6.60;99.90;;;;;;4996496;28;20057;-69
2021/12/28 05:20:47;;;;;;;90.30;33.58;;;6.60;99.90;;;;;;4993039;28;20109;-68
2021/12/28 05:23:13;;;;;;;95.50;32.30;;;6.60;99.90;;;;;;4989224;28;20057;-69
2021/12/28 05:25:40;;;;;;;80.28;32.25;;;6.60;99.90;;;;;;4977612;28;266322;-68
2021/12/28 05:28:06;;;;;;;85.65;30.60;;;6.60;99.90;;;;;;4985077;28;20066;-68
2021/12/28 05:30:34;;;;;;;75.22;29.55;;;6.60;99.90;;;;;;4968739;28;205625;-69
2021/12/28 05:33:00;;;;;;;77.57;30.08;;;6.50;99.90;;;;;;4991515;28;20037;-68
2021/12/28 05:35:26;;;;;;;80.05;28.38;;;6.50;99.90;;;;;;4975398;28;266935;-70
2021/12/28 05:37:53;;;;;;;76.35;28.92;;;6.50;99.90;;;;;;4986170;28;20061;-67
2021/12/28 05:40:19;;;;;;;75.57;29.10;;;6.50;99.90;;;;;;4975930;28;50721;-70
2021/12/28 05:42:46;;;;;;;77.60;28.80;;;6.50;99.90;;;;;;4988829;28;20050;-69
2021/12/28 05:45:12;;;;;;;67.70;27.55;;;6.50;99.90;;;;;;4972291;28;176828;-69
2021/12/28 05:47:39;;;;;;;71.95;28.35;;;6.50;99.90;;;;;;4992070;28;20980;-70
2021/12/28 05:50:08;;;;;;;73.43;27.70;;;6.50;99.90;;;;;;4988924;28;107370;-69
2021/12/28 05:52:35;;;;;;;74.93;27.83;;;6.50;99.90;;;;;;4991464;28;20057;-70
2021/12/28 05:55:01;;;;;;;75.28;27.85;;;6.50;99.90;;;;;;4971145;28;268138;-69
2021/12/28 05:57:27;;;;;;;62.13;26.75;;;6.50;99.90;;;;;;4992539;28;20058;-69
2021/12/28 05:59:54;;;;;;;65.07;26.38;;;6.50;99.90;;;;;;4970334;28;91141;-69
2021/12/28 06:02:20;;;;;;;69.35;26.48;;;6.50;99.90;;;;;;4986531;28;20064;-69
2021/12/28 06:04:46;;;;;;;66.03;26.30;;;6.50;99.90;;;;;;4954808;28;258142;-70
2021/12/28 06:07:12;;;;;;;65.13;25.33;;;6.50;99.90;;;;;;4996041;28;20056;-69
2021/12/28 06:09:38;;;;;;;63.45;25.40;;;6.50;99.90;;;;;;4965222;28;269589;-68
2021/12/28 06:12:06;;;;;;;70.03;25.65;;;6.50;99.90;;;;;;4949892;28;20059;-69
2021/12/28 06:14:33;;;;;;;63.92;24.58;;;6.50;99.90;;;;;;4965895;28;250764;-70
2021/12/28 06:16:59;;;;;;;58.67;23.77;;;6.50;99.90;;;;;;4995183;28;20038;-69
2021/12/28 06:19:25;;;;;;;51.78;23.13;;;6.50;99.90;;;;;;4969356;28;272124;-68
2021/12/28 06:21:51;;;;;;;61.63;23.42;;;6.50;99.90;;;;;;4982242;28;20050;-69
2021/12/28 06:24:18;;;;;;;51.17;23.33;;;6.40;99.90;;;;;;4963850;28;251606;-69
2021/12/28 06:26:44;;;;;;;52.67;23.35;;;6.40;99.90;;;;;;4997838;28;20072;-69
2021/12/28 06:29:11;;;;;;;56.22;24.40;;;6.50;99.90;;;;;;4972464;28;20043;-69
2021/12/28 06:31:38;;;;;;;48.40;22.52;;;6.50;99.90;;;;;;4964364;28;255095;-68
2021/12/28 06:34:07;;;;;;;51.67;22.23;;;6.40;99.90;;;;;;4975863;28;20051;-68
2021/12/28 06:36:33;;;;;;;54.88;22.38;;;6.40;99.90;;;;;;4959270;28;263527;-69
2021/12/28 06:38:59;;;;;;;47.65;21.98;;;6.40;99.90;;;;;;4964700;28;20043;-69
2021/12/28 06:41:25;;;;;;;50.03;20.35;;;6.50;99.90;;;;;;4951136;28;125194;-69
2021/12/28 06:43:52;;;;;;;47.22;20.83;;;6.40;99.90;;;;;;4969024;28;20411;-69
2021/12/28 06:46:18;;;;;;;49.63;20.60;;;6.40;99.90;;;;;;4964506;28;254208;-69
2021/12/28 06:48:44;;;;;;;46.65;20.05;;;6.40;99.90;;;;;;4967234;28;20054;-68
2021/12/28 06:51:11;;;;;;;44.97;19.77;;;6.40;99.90;;;;;;4954171;28;267803;-68
2021/12/28 06:53:38;;;;;;;43.90;20.13;;;6.40;99.90;;;;;;4967193;28;20054;-69
2021/12/28 06:56:05;;;;;;;46.72;18.77;;;6.40;99.90;;;;;;4951586;28;129451;-69
2021/12/28 06:58:31;;;;;;;43.47;18.80;;;6.40;99.90;;;;;;4972452;28;20046;-69
2021/12/28 07:00:58;;;;;;;42.47;19.58;;;6.40;99.90;;;;;;4956345;28;100644;-69
2021/12/28 07:03:24;;;;;;;43.92;19.17;;;6.50;99.90;;;;;;4958939;28;20534;-69
2021/12/28 07:05:51;;;;;;;40.13;18.15;;;6.50;99.90;;;;;;4936880;28;258811;-68
2021/12/28 07:08:17;;;;;;;39.70;17.90;;;6.50;99.90;;;;;;4966883;28;20059;-70
2021/12/28 07:10:43;;;;;;;37.15;16.88;;;6.50;99.90;;;;;;4952818;28;25582;-68
2021/12/28 07:13:09;;;;;;;41.30;16.95;;;6.50;99.90;;;;;;4966560;28;20047;-69
2021/12/28 07:15:36;;;;;;;42.92;17.08;;;6.50;99.90;;;;;;4944344;28;272906;-69
2021/12/28 07:18:02;;;;;;;48.42;17.10;;;6.50;99.90;;;;;;4963202;28;20042;-70
2021/12/28 07:20:28;;;;;;;39.50;16.13;;;6.60;99.90;;;;;;4954826;28;266541;-69
2021/12/28 07:22:54;;;;;;;38.88;16.05;;;6.60;99.90;;;;;;4970484;28;20047;-69
2021/12/28 07:25:21;;;;;;;40.17;16.05;;;6.60;99.90;;;;;;4953675;28;271762;-70
2021/12/28 07:27:47;;;;;;;39.67;15.48;;;6.60;99.90;;;;;;4971183;28;20069;-70
2021/12/28 07:30:13;;;;;;;37.67;15.75;;;6.60;99.90;;;;;;4947168;28;274639;-68
2021/12/28 07:32:40;;;;;;;38.10;15.40;;;6.60;99.90;;;;;;4969962;28;20073;-69
2021/12/28 07:35:08;;;;;;;34.58;14.60;;;6.60;99.90;;;;;;4946238;28;279643;-69
2021/12/28 07:37:34;;;;;;;40.40;14.75;;;6.50;99.90;;;;;;4960951;28;20139;-68
2021/12/28 07:40:00;;;;;;;37.03;15.02;;;6.60;99.90;;;;;;4946562;28;260319;-69
2021/12/28 07:42:27;;;;;;;34.75;15.27;;;6.50;99.90;;;;;;4962043;28;20142;-69
2021/12/28 07:44:53;;;;;;;36.38;15.02;;;6.50;99.90;;;;;;4949300;28;261726;-68
2021/12/28 07:47:19;;;;;;;41.70;15.75;;;6.60;99.90;;;;;;4971978;28;20034;-68
2021/12/28 07:49:45;;;;;;;32.75;14.75;;;6.60;99.90;;;;;;4951503;28;184534;-69
2021/12/28 07:52:11;;;;;;;33.00;14.93;;;6.50;99.90;;;;;;4961341;28;20066;-70
2021/12/28 07:54:37;;;;;;;35.85;14.18;;;6.50;99.90;;;;;;4945620;28;247065;-70
2021/12/28 07:57:04;;;;;;;35.83;15.02;;;6.50;99.90;;;;;;4961749;28;20412;-70
2021/12/28 07:59:30;;;;;;;34.00;14.90;;;6.50;99.90;;;;;;4947297;28;262915;-69
2021/12/28 08:01:56;;;;;;;37.13;14.52;;;6.60;99.90;;;;;;4976505;28;20059;-69
2021/12/28 08:04:22;;;;;;;37.95;14.65;;;6.50;99.90;;;;;;4938538;28;251026;-70
2021/12/28 08:06:48;;;;;;;32.85;13.55;;;6.50;99.90;;;;;;4966046;28;20050;-68
2021/12/28 08:09:14;;;;;;;34.47;14.35;;;6.50;99.90;;;;;;4962566;28;20086;-69
2021/12/28 08:11:42;;;;;;;38.47;14.68;;;6.50;99.90;;;;;;4966412;28;155425;-70
2021/12/28 08:14:08;;;;;;;39.92;14.25;;;6.60;99.90;;;;;;4965861;28;20053;-70
2021/12/28 08:16:34;;;;;;;35.42;13.98;;;6.50;99.90;;;;;;4978770;28;267717;-69
2021/12/28 08:19:02;;;;;;;33.83;13.13;;;6.50;99.90;;;;;;4985186;28;20053;-69
2021/12/28 08:21:28;;;;;;;36.78;13.00;;;6.50;99.90;;;;;;4959014;28;20046;-69
2021/12/28 08:23:54;;;;;;;35.08;14.23;;;6.50;99.90;;;;;;4984197;28;20061;-68
2021/12/28 08:26:20;;;;;;;31.40;12.73;;;6.60;99.90;;;;;;4972440;28;272125;-70
2021/12/28 08:28:46;;;;;;;34.38;14.10;;;6.60;99.90;;;;;;4974551;28;20061;-70
2021/12/28 08:31:13;;;;;;;30.55;12.45;;;6.60;99.90;;;;;;4979792;28;260772;-69
2021/12/28 08:33:39;;;;;;;29.90;12.50;;;6.60;99.90;;;;;;4973694;28;20058;-69
2021/12/28 08:36:05;;;;;;;32.90;12.93;;;6.60;99.90;;;;;;4961658;28;165941;-68
2021/12/28 08:38:31;;;;;;;37.55;12.63;;;6.60;99.90;;;;;;4995626;28;20602;-69
2021/12/28 08:40:59;;;;;;;37.65;13.57;;;6.60;99.90;;;;;;4977002;28;272858;-69
2021/12/28 08:43:26;;;;;;;32.83;13.52;;;6.60;99.90;;;;;;4977582;28;20051;-69
2021/12/28 08:45:53;;;;;;;34.17;12.52;;;6.60;99.90;;;;;;4962950;28;270283;-69
2021/12/28 08:52:00;;;;;;;28.98;12.25;;;6.60;99.90;;;;;;4958782;28;20396;-68
2021/12/28 08:54:27;;;;;;;30.45;12.18;;;6.60;99.90;;;;;;4947621;28;255482;-69
2021/12/28 08:56:53;;;;;;;31.27;11.95;;;6.60;99.90;;;;;;4975719;28;20069;-69
2021/12/28 08:59:19;;;;;;;31.13;11.60;;;6.60;99.90;;;;;;4948178;28;254899;-68
2021/12/28 09:01:48;;;;;;;27.02;10.85;;;6.70;99.90;;;;;;4967466;28;20057;-69
2021/12/28 09:04:16;;;;;;;32.08;11.80;;;6.70;99.90;;;;;;4967649;28;20054;-69
2021/12/28 09:06:44;;;;;;;38.90;11.52;;;6.80;99.90;;;;;;4952071;28;273500;-69
2021/12/28 09:09:10;;;;;;;29.42;10.93;;;6.80;99.90;;;;;;4986058;28;20061;-69
2021/12/28 09:11:37;;;;;;;29.63;10.60;;;6.80;99.90;;;;;;4981102;28;260409;-69
2021/12/28 09:14:03;;;;;;;28.65;11.30;;;6.90;99.90;;;;;;4988018;28;20051;-69
2021/12/28 09:16:30;;;;;;;35.22;11.70;;;6.90;99.90;;;;;;4988711;28;271163;-69
2021/12/28 09:18:56;;;;;;;26.27;10.50;;;7.00;99.90;;;;;;4984034;28;20447;-69
2021/12/28 09:21:22;;;;;;;31.23;10.63;;;7.00;99.90;;;;;;4979645;28;264601;-68
2021/12/28 09:23:49;;;;;;;33.08;10.48;;;7.00;99.90;;;;;;4986305;28;20054;-69
2021/12/28 09:26:15;;;;;;;29.42;10.40;;;7.00;99.90;;;;;;4982819;28;249948;-67
2021/12/28 09:28:41;;;;;;;31.58;9.73;;;7.00;99.90;;;;;;4989703;28;20391;-70
2021/12/28 09:31:07;;;;;;;29.05;10.02;;;7.10;99.90;;;;;;4981267;28;256062;-70
2021/12/28 09:33:33;;;;;;;28.55;9.93;;;7.10;99.90;;;;;;4976999;28;20047;-69
2021/12/28 09:36:05;;;;;;;27.77;9.05;;;7.10;99.90;;;;;;4981674;28;246355;-70
2021/12/28 09:38:31;;;;;;;24.92;8.77;;;7.20;99.90;;;;;;4986349;28;20046;-70
2021/12/28 09:40:57;;;;;;;27.92;9.30;;;7.20;99.90;;;;;;4980093;28;259063;-70
2021/12/28 09:43:23;;;;;;;25.83;9.23;;;7.30;99.90;;;;;;4992056;28;20049;-70
2021/12/28 09:45:49;;;;;;;30.63;9.43;;;7.30;99.90;;;;;;4981608;28;256887;-70
2021/12/28 09:48:15;;;;;;;29.80;8.80;;;7.30;99.90;;;;;;4986228;28;20054;-70
2021/12/28 09:50:41;;;;;;;23.48;8.63;;;7.40;99.90;;;;;;4971832;28;119373;-70
2021/12/28 09:53:14;;;;;;;28.55;8.80;;;7.40;99.90;;;;;;4985372;28;20046;-70
2021/12/28 09:55:41;;;;;;;26.50;8.85;;;7.40;99.90;;;;;;4974833;28;137191;-70
2021/12/28 09:58:07;;;;;;;35.28;9.18;;;7.40;99.90;;;;;;4992590;28;20042;-69
2021/12/28 10:00:33;;;;;;;30.58;9.95;;;7.50;99.90;;;;;;4976667;28;145294;-70
2021/12/28 10:02:59;;;;;;;22.85;8.10;;;7.50;99.90;;;;;;4998744;28;20058;-70
2021/12/28 10:05:27;;;;;;;24.55;7.93;;;7.50;99.90;;;;;;4959219;28;145174;-70
2021/12/28 10:07:57;;;;;;;26.17;7.63;;;7.50;99.90;;;;;;4994584;28;20054;-70
2021/12/28 10:10:25;;;;;;;28.30;7.90;;;7.50;99.90;;;;;;4975422;28;256081;-70
2021/12/28 10:12:58;;;;;;;25.48;8.43;;;7.50;99.90;;;;;;4982254;28;20058;-70
2021/12/28 10:15:27;;;;;;;29.67;8.63;;;7.50;99.90;;;;;;4973320;28;49810;-70
2021/12/28 10:17:56;;;;;;;22.40;8.23;;;7.50;99.90;;;;;;4990425;28;20059;-71
2021/12/28 10:20:29;;;;;;;23.58;9.10;;;7.50;99.90;;;;;;4980576;28;256408;-70
2021/12/28 10:23:10;;;;;;;28.75;9.10;;;7.50;99.90;;;;;;4991360;28;20074;-71
2021/12/28 10:25:48;;;;;;;22.80;8.20;;;7.50;99.90;;;;;;4976938;28;286313;-69
2021/12/28 10:28:21;;;;;;;27.70;9.50;;;7.50;99.90;;;;;;4988431;28;20050;-70
2021/12/28 10:30:54;;;;;;;31.25;9.18;;;7.60;99.90;;;;;;4977632;28;56952;-71
2021/12/28 10:33:24;;;;;;;28.67;9.40;;;7.60;99.90;;;;;;4987774;28;20062;-70
2021/12/28 10:35:57;;;;;;;30.17;9.25;;;7.50;99.90;;;;;;4986874;28;271547;-71
2021/12/28 10:38:25;;;;;;;23.38;8.65;;;7.50;99.90;;;;;;4997517;28;20046;-71
2021/12/28 10:40:59;;;;;;;23.25;8.73;;;7.50;99.90;;;;;;4970081;28;227517;-71
2021/12/28 10:43:32;;;;;;;28.77;9.07;;;7.60;99.90;;;;;;5000253;28;20053;-70
2021/12/28 10:46:04;;;;;;;23.55;9.30;;;7.50;99.90;;;;;;4984950;28;36143;-71
2021/12/28 10:48:39;;;;;;;29.52;9.98;;;7.50;99.90;;;;;;5000744;28;20049;-71
2021/12/28 10:51:13;;;;;;;27.92;9.93;;;7.60;99.90;;;;;;4965926;28;254686;-71
2021/12/28 10:54:00;;;;;;;27.38;9.27;;;7.50;99.90;;;;;;4969676;28;20054;-69
2021/12/28 10:56:39;;;;;;;24.77;10.40;;;7.50;99.90;;;;;;4982519;28;274259;-70
2021/12/28 10:59:07;;;;;;;25.10;10.10;;;7.60;99.90;;;;;;4987418;28;20058;-71
2021/12/28 11:01:38;;;;;;;21.02;9.35;;;7.60;99.90;;;;;;4971143;28;185651;-70
2021/12/28 11:04:10;;;;;;;21.98;9.63;;;7.60;99.90;;;;;;4972287;28;20073;-72
2021/12/28 11:06:49;;;;;;;20.77;9.45;;;7.60;99.90;;;;;;4974370;28;147383;-71
2021/12/28 11:09:23;;;;;;;27.75;10.27;;;7.60;99.90;;;;;;4966938;28;20058;-72
2021/12/28 11:11:54;;;;;;;23.50;10.40;;;7.60;99.90;;;;;;4972153;28;20046;-72
2021/12/28 11:14:24;;;;;;;27.45;10.35;;;7.60;99.90;;;;;;4968676;28;255532;-71
2021/12/28 12:02:13;;;;;;;22.88;10.32;;;7.80;99.90;;;;;;4967770;28;20030;-71
2021/12/28 12:04:46;;;;;;;18.40;10.00;;;7.80;99.90;;;;;;4936743;28;267691;-72
2021/12/28 12:07:16;;;;;;;19.27;9.98;;;7.80;99.90;;;;;;4984349;28;20046;-72
2021/12/28 12:09:54;;;;;;;19.20;9.60;;;7.80;99.90;;;;;;4965541;28;267570;-71
2021/12/28 12:12:25;;;;;;;18.92;9.52;;;7.90;99.90;;;;;;4971369;28;20046;-74
2021/12/28 12:14:56;;;;;;;19.98;9.48;;;7.90;99.90;;;;;;4952606;28;207214;-73
2021/12/28 12:17:26;;;;;;;;;;;7.90;99.90;;;;;;4976531;28;20062;-71
2021/12/28 12:19:52;;;;;;;21.45;9.55;;;7.90;99.90;;;;;;4959964;28;19924;-71
2021/12/28 12:22:38;;;;;;;19.17;9.80;;;7.90;99.90;;;;;;4969380;28;20057;-71
2021/12/28 12:25:20;;;;;;;21.17;9.82;;;7.90;99.90;;;;;;4956156;28;196262;-72
2021/12/28 12:27:49;;;;;;;18.02;9.75;;;7.90;99.90;;;;;;4993108;28;20053;-70
2021/12/28 12:30:18;;;;;;;21.02;9.82;;;7.90;99.90;;;;;;4979231;28;87126;-71
2021/12/28 12:33:07;;;;;;;19.75;10.30;;;7.90;99.90;;;;;;5008685;28;20077;-71
2021/12/28 12:35:49;;;;;;;22.02;11.10;;;7.90;99.90;;;;;;4993472;28;263313;-71
2021/12/28 12:38:16;;;;;;;22.25;10.98;;;8.00;99.90;;;;;;5005811;28;20060;-72
2021/12/28 12:40:54;;;;;;;22.60;11.95;;;8.00;99.90;;;;;;4976712;28;207178;-71
2021/12/28 12:43:23;;;;;;;20.05;10.43;;;8.00;99.90;;;;;;5003134;28;20225;-72
2021/12/28 12:45:56;;;;;;;21.98;11.25;;;8.00;99.90;;;;;;4979461;28;20045;-72
2021/12/28 12:48:38;;;;;;;20.05;10.80;;;8.00;99.90;;;;;;4991810;28;20061;-72
2021/12/28 12:51:19;;;;;;;20.98;11.00;;;8.00;99.90;;;;;;4988448;28;38466;-72
2021/12/28 12:53:45;;;;;;;;;;;8.00;99.90;;;;;;4994397;28;20068;-72
2021/12/28 12:56:21;;;;;;;21.42;10.88;;;8.00;99.90;;;;;;4995922;28;260218;-73
2021/12/28 12:58:50;;;;;;;22.40;11.40;;;8.00;99.90;;;;;;4987753;28;20045;-71
2021/12/28 13:01:28;;;;;;;18.15;11.60;;;8.00;99.90;;;;;;4989224;28;254195;-71
2021/12/28 13:03:56;;;;;;;20.80;11.68;;;8.00;99.90;;;;;;4990529;28;20049;-71
2021/12/28 13:06:45;;;;;;;22.60;11.00;;;8.00;99.90;;;;;;4964038;28;242616;-72
2021/12/28 13:09:13;;;;;;;19.63;11.05;;;8.00;99.90;;;;;;4913592;29;20052;-73
2021/12/28 13:11:41;;;;;;;22.40;12.40;;;8.00;99.90;;;;;;4894596;29;140264;-71
2021/12/28 13:14:08;;;;;;;25.10;12.93;;;8.00;99.90;;;;;;4904041;29;20410;-72
2021/12/28 13:16:35;;;;;;;23.20;13.30;;;8.10;99.90;;;;;;4887764;29;20060;-72
2021/12/28 13:19:09;;;;;;;22.35;12.93;;;8.10;99.90;;;;;;4917756;29;20048;-71
2021/12/28 13:21:36;;;;;;;22.40;12.68;;;8.10;99.90;;;;;;4885381;29;255234;-72
2021/12/28 13:24:13;;;;;;;24.10;13.65;;;8.10;99.90;;;;;;4910767;29;20059;-72
2021/12/28 13:26:48;;;;;;;25.02;14.00;;;8.10;99.90;;;;;;4879695;29;224991;-71
2021/12/28 13:29:35;;;;;;;23.48;13.93;;;8.10;99.90;;;;;;4909083;29;20040;-73
2021/12/28 13:32:21;;;;;;;24.33;14.32;;;8.10;99.90;;;;;;4893908;29;20078;-71